Time;durP1;ratioP1;P1;durP2;ratioP2;P2;SDS_P1;SDS_P2;PMS_P1;PMS_P2;Temp;Humidity;BMP_temperature;BMP_pressure;BME280_temperature;BME280_humidity;BME280_pressure;Samples;Min_cycle;Max_cycle;Signal;HPM_P1;HPM_P2
2021/05/10 00:02:09;;;;;;;7.78;2.05;;;20.10;73.40;;;;;;5086105;28;20024;-65
2021/05/10 00:04:35;;;;;;;6.80;2.08;;;20.20;73.60;;;;;;5076460;28;20048;-65
2021/05/10 00:07:00;;;;;;;7.07;1.75;;;20.20;73.70;;;;;;5083550;28;20291;-65
2021/05/10 00:09:26;;;;;;;4.88;1.90;;;20.30;73.60;;;;;;5069532;28;20024;-65
2021/05/10 00:11:52;;;;;;;6.72;2.00;;;20.30;73.80;;;;;;5078791;28;20425;-65
2021/05/10 00:14:27;;;;;;;4.78;1.83;;;20.30;73.90;;;;;;5083976;28;20043;-65
2021/05/10 00:16:53;;;;;;;5.55;1.67;;;20.30;73.90;;;;;;5079610;28;20043;-65
2021/05/10 00:19:19;;;;;;;5.60;1.90;;;20.30;73.90;;;;;;5080869;28;20028;-65
2021/05/10 00:21:44;;;;;;;6.30;1.98;;;20.40;73.90;;;;;;5081512;28;20017;-65
2021/05/10 00:24:10;;;;;;;10.23;2.25;;;20.40;74.10;;;;;;5074337;28;20021;-65
2021/05/10 00:26:35;;;;;;;7.25;1.85;;;20.30;74.20;;;;;;5072272;28;20072;-65
2021/05/10 00:29:01;;;;;;;7.82;2.00;;;20.30;74.40;;;;;;5079328;28;20118;-65
2021/05/10 00:31:28;;;;;;;6.18;2.00;;;20.40;74.50;;;;;;5083758;28;20296;-65
2021/05/10 00:33:53;;;;;;;5.72;1.98;;;20.40;74.40;;;;;;5069077;28;20079;-65
2021/05/10 00:36:19;;;;;;;7.05;2.42;;;20.50;74.30;;;;;;5084874;28;20465;-65
2021/05/10 00:38:44;;;;;;;6.38;2.35;;;20.50;74.60;;;;;;5073500;28;20026;-65
2021/05/10 00:41:11;;;;;;;6.05;2.10;;;20.40;74.60;;;;;;5080131;28;20488;-65
2021/05/10 00:43:36;;;;;;;6.10;2.00;;;20.40;75.50;;;;;;5076956;28;20025;-65
2021/05/10 00:46:02;;;;;;;8.50;1.80;;;20.40;74.90;;;;;;5074412;28;20028;-65
2021/05/10 00:48:28;;;;;;;7.13;2.10;;;20.40;74.90;;;;;;5080916;28;20075;-65
2021/05/10 00:50:53;;;;;;;6.10;1.80;;;20.40;75.10;;;;;;5075077;28;20020;-66
2021/05/10 00:53:19;;;;;;;9.82;1.92;;;20.40;74.80;;;;;;5077700;28;20058;-65
2021/05/10 00:55:44;;;;;;;5.60;2.05;;;20.40;74.70;;;;;;5069947;28;20013;-65
2021/05/10 00:58:11;;;;;;;5.72;1.90;;;20.40;74.70;;;;;;5084866;28;20032;-65
2021/05/10 01:00:38;;;;;;;6.32;2.30;;;20.30;74.70;;;;;;5071625;28;20029;-65
2021/05/10 01:03:04;;;;;;;4.97;1.90;;;20.40;74.80;;;;;;5075958;28;20085;-65
2021/05/10 01:05:31;;;;;;;7.90;2.17;;;20.30;75.00;;;;;;5080520;28;20049;-65
2021/05/10 01:07:57;;;;;;;9.55;2.38;;;20.30;75.20;;;;;;5071682;28;20029;-65
2021/05/10 01:10:25;;;;;;;7.30;1.80;;;20.40;74.70;;;;;;5073599;28;20081;-65
2021/05/10 01:12:50;;;;;;;7.80;2.22;;;20.50;74.60;;;;;;5080629;28;20069;-65
2021/05/10 01:15:18;;;;;;;5.03;1.70;;;20.50;74.50;;;;;;5081264;28;20028;-65
2021/05/10 01:17:45;;;;;;;6.25;1.98;;;20.50;73.80;;;;;;5081597;28;20040;-65
2021/05/10 01:20:14;;;;;;;5.85;2.00;;;20.50;74.50;;;;;;5080287;28;20020;-65
2021/05/10 01:22:48;;;;;;;5.90;2.00;;;20.40;75.00;;;;;;5071559;28;20032;-65
2021/05/10 01:25:17;;;;;;;7.05;2.10;;;20.30;75.20;;;;;;5081235;28;20020;-65
2021/05/10 01:27:44;;;;;;;8.80;1.90;;;20.20;75.60;;;;;;5075560;28;20021;-65
2021/05/10 01:30:35;;;;;;;5.63;1.90;;;20.10;75.90;;;;;;5080502;28;20036;-66
2021/05/10 01:33:02;;;;;;;7.57;2.15;;;20.00;76.20;;;;;;5083952;28;20067;-65
2021/05/10 01:35:32;;;;;;;8.60;2.20;;;19.90;76.60;;;;;;5074036;28;20100;-65
2021/05/10 01:37:58;;;;;;;6.53;2.20;;;19.90;76.50;;;;;;5077383;28;20044;-65
2021/05/10 01:40:23;;;;;;;6.25;1.90;;;19.90;77.40;;;;;;5068340;28;20016;-65
2021/05/10 01:42:50;;;;;;;6.32;2.08;;;19.90;77.50;;;;;;5073726;28;20031;-65
2021/05/10 01:45:16;;;;;;;5.60;1.88;;;19.90;77.30;;;;;;5080642;28;20387;-65
2021/05/10 01:47:41;;;;;;;6.82;2.00;;;19.90;77.90;;;;;;5084263;28;20027;-65
2021/05/10 01:50:13;;;;;;;7.25;2.15;;;19.90;78.10;;;;;;5080309;28;20509;-65
2021/05/10 01:52:39;;;;;;;5.88;2.20;;;19.90;78.60;;;;;;5086905;28;20024;-66
2021/05/10 01:55:05;;;;;;;7.00;1.92;;;19.90;79.50;;;;;;5071780;28;20210;-66
2021/05/10 01:57:31;;;;;;;6.70;1.90;;;19.80;80.40;;;;;;5081070;28;20066;-66
2021/05/10 01:59:57;;;;;;;7.95;2.00;;;19.70;80.90;;;;;;5085770;28;20023;-66
2021/05/10 02:02:22;;;;;;;5.28;2.00;;;19.70;80.20;;;;;;5079452;28;20353;-66
2021/05/10 02:05:10;;;;;;;5.68;2.20;;;19.60;80.20;;;;;;5079716;28;20051;-66
2021/05/10 02:07:38;;;;;;;6.32;1.90;;;19.60;80.70;;;;;;5077457;28;20416;-66
2021/05/10 02:10:31;;;;;;;8.70;2.50;;;19.60;80.30;;;;;;5076427;28;20024;-66
2021/05/10 02:13:14;;;;;;;7.05;2.10;;;19.60;80.40;;;;;;5077395;28;20036;-66
2021/05/10 02:15:54;;;;;;;4.60;1.70;;;19.70;80.00;;;;;;5087464;28;20483;-66
2021/05/10 02:18:25;;;;;;;6.28;2.05;;;19.60;80.00;;;;;;5082153;28;20074;-66
2021/05/10 02:20:52;;;;;;;8.30;2.00;;;19.50;80.10;;;;;;5078220;28;20029;-66
2021/05/10 02:23:17;;;;;;;6.85;2.05;;;19.50;81.50;;;;;;5079865;28;20020;-66
2021/05/10 02:25:45;;;;;;;5.60;1.95;;;19.50;81.50;;;;;;5086928;28;20034;-66
2021/05/10 02:28:12;;;;;;;8.25;1.88;;;19.50;81.10;;;;;;5080396;28;20074;-66
2021/05/10 02:30:39;;;;;;;7.03;1.85;;;19.60;80.50;;;;;;5076168;28;20029;-66
2021/05/10 02:33:07;;;;;;;7.15;2.20;;;19.70;79.80;;;;;;5073596;28;20035;-66
2021/05/10 02:35:33;;;;;;;4.97;2.22;;;19.90;78.70;;;;;;5089620;28;20100;-66
2021/05/10 02:37:59;;;;;;;6.10;2.13;;;20.00;79.20;;;;;;5073009;28;20527;-66
2021/05/10 02:40:25;;;;;;;6.55;2.15;;;20.00;79.00;;;;;;5079422;28;20020;-66
2021/05/10 02:42:51;;;;;;;6.55;1.92;;;20.00;79.40;;;;;;5075167;28;20388;-66
2021/05/10 02:45:18;;;;;;;5.68;1.98;;;19.90;79.10;;;;;;5088446;28;20052;-65
2021/05/10 02:47:45;;;;;;;5.40;2.00;;;20.00;78.60;;;;;;5079517;28;20020;-65
2021/05/10 02:50:14;;;;;;;10.45;2.05;;;20.00;78.50;;;;;;5087687;28;20119;-65
2021/05/10 02:52:40;;;;;;;5.43;1.98;;;20.10;78.50;;;;;;5088740;28;20068;-65
2021/05/10 02:55:07;;;;;;;6.43;1.90;;;20.00;78.30;;;;;;5081955;28;20032;-65
2021/05/10 02:57:33;;;;;;;8.35;2.00;;;20.00;78.50;;;;;;5077762;28;20349;-65
2021/05/10 02:59:58;;;;;;;5.80;1.98;;;19.90;78.80;;;;;;5076414;28;20063;-65
2021/05/10 03:02:24;;;;;;;5.25;1.70;;;20.00;78.30;;;;;;5081107;28;20052;-65
2021/05/10 03:04:50;;;;;;;5.68;1.75;;;20.00;78.00;;;;;;5076900;28;20039;-65
2021/05/10 03:07:16;;;;;;;6.05;2.13;;;20.20;77.80;;;;;;5074449;28;20139;-65
2021/05/10 03:09:42;;;;;;;5.22;1.85;;;20.20;77.40;;;;;;5076252;28;20108;-65
2021/05/10 03:12:08;;;;;;;6.32;1.95;;;20.30;77.20;;;;;;5081310;28;20372;-65
2021/05/10 03:14:34;;;;;;;6.80;2.10;;;20.30;77.30;;;;;;5083711;28;20103;-65
2021/05/10 03:16:59;;;;;;;7.25;1.90;;;20.20;77.50;;;;;;5088704;28;20047;-66
2021/05/10 03:19:25;;;;;;;8.77;2.03;;;20.10;78.10;;;;;;5084070;28;20024;-65
2021/05/10 03:21:51;;;;;;;4.65;1.70;;;20.10;78.40;;;;;;5081689;28;20070;-65
2021/05/10 03:24:16;;;;;;;8.18;1.90;;;20.00;78.80;;;;;;5087686;28;20533;-65
2021/05/10 03:26:42;;;;;;;8.07;2.00;;;20.00;79.30;;;;;;5071961;28;20028;-65
2021/05/10 03:29:08;;;;;;;6.93;1.90;;;19.80;79.90;;;;;;5076750;28;20028;-65
2021/05/10 03:31:34;;;;;;;9.48;2.08;;;19.80;79.80;;;;;;5084478;28;20039;-66
2021/05/10 03:34:01;;;;;;;6.32;2.00;;;19.80;80.20;;;;;;5077697;28;20352;-66
2021/05/10 03:36:27;;;;;;;4.70;1.83;;;19.60;80.70;;;;;;5083991;28;20059;-65
2021/05/10 03:38:53;;;;;;;8.25;2.28;;;19.50;81.30;;;;;;5080299;28;20362;-65
2021/05/10 03:41:18;;;;;;;8.85;2.00;;;19.40;82.10;;;;;;5071334;28;20016;-66
2021/05/10 03:43:44;;;;;;;8.75;2.10;;;19.30;82.30;;;;;;5084935;28;20028;-66
2021/05/10 03:46:10;;;;;;;5.90;2.20;;;19.30;82.70;;;;;;5086921;28;20233;-66
2021/05/10 03:48:35;;;;;;;5.38;2.10;;;19.20;83.40;;;;;;5076803;28;20515;-65
2021/05/10 03:51:01;;;;;;;5.97;2.45;;;19.10;83.30;;;;;;5085780;28;20019;-66
2021/05/10 03:53:26;;;;;;;7.28;2.38;;;18.80;84.10;;;;;;5077154;28;20036;-66
2021/05/10 03:55:52;;;;;;;14.20;2.72;;;18.90;84.30;;;;;;5076723;28;20020;-67
2021/05/10 03:58:18;;;;;;;8.07;2.22;;;18.90;84.20;;;;;;5082261;28;20111;-66
2021/05/10 04:00:44;;;;;;;9.55;2.72;;;18.80;84.20;;;;;;5073550;28;20499;-65
2021/05/10 04:03:12;;;;;;;6.40;2.40;;;18.80;84.90;;;;;;5085571;28;20028;-65
2021/05/10 04:16:07;;;;;;;6.90;2.40;;;18.80;84.40;;;;;;5076927;28;20054;-65
2021/05/10 04:18:34;;;;;;;10.77;2.55;;;18.80;84.30;;;;;;5074781;28;20047;-65
2021/05/10 04:20:59;;;;;;;7.90;2.13;;;18.70;84.90;;;;;;5078853;28;20600;-65
2021/05/10 04:23:26;;;;;;;8.60;2.10;;;18.90;84.30;;;;;;5078883;28;20028;-65
2021/05/10 04:25:52;;;;;;;8.15;2.25;;;18.90;84.30;;;;;;5082788;28;20016;-66
2021/05/10 04:28:23;;;;;;;5.72;2.20;;;18.90;84.50;;;;;;5073805;28;20142;-65
2021/05/10 04:30:49;;;;;;;7.75;2.22;;;18.90;85.00;;;;;;5075890;28;20524;-65
2021/05/10 04:33:16;;;;;;;7.13;2.28;;;18.80;85.40;;;;;;5076589;28;20549;-65
2021/05/10 04:35:41;;;;;;;10.05;2.50;;;18.90;85.40;;;;;;5086095;28;20036;-66
2021/05/10 04:38:10;;;;;;;7.35;2.40;;;18.90;85.40;;;;;;5074362;28;20052;-65
2021/05/10 04:40:37;;;;;;;6.95;2.40;;;19.00;85.00;;;;;;5076833;28;20499;-65
2021/05/10 04:43:03;;;;;;;9.32;2.60;;;19.10;84.60;;;;;;5072634;28;20029;-65
2021/05/10 04:45:29;;;;;;;5.50;2.00;;;19.20;84.40;;;;;;5077532;28;20373;-64
2021/05/10 04:47:54;;;;;;;8.45;2.00;;;19.40;83.90;;;;;;5081193;28;20066;-65
2021/05/10 04:50:20;;;;;;;5.13;1.92;;;19.60;83.00;;;;;;5075117;28;20108;-66
2021/05/10 04:52:46;;;;;;;6.25;2.15;;;19.70;83.40;;;;;;5070592;28;20028;-66
2021/05/10 04:55:13;;;;;;;6.80;2.22;;;19.70;83.30;;;;;;5071575;28;20025;-66
2021/05/10 04:57:39;;;;;;;6.60;1.90;;;19.70;83.40;;;;;;5076798;28;20072;-66
2021/05/10 05:00:07;;;;;;;7.00;2.10;;;19.70;83.30;;;;;;5081602;28;20384;-65
2021/05/10 05:02:33;;;;;;;5.25;2.10;;;19.80;83.50;;;;;;5077930;28;20423;-66
2021/05/10 05:04:58;;;;;;;8.10;2.20;;;19.80;83.30;;;;;;5075503;28;20031;-65
2021/05/10 05:07:24;;;;;;;5.40;2.00;;;19.80;83.40;;;;;;5085425;28;20040;-66
2021/05/10 05:09:50;;;;;;;8.35;2.05;;;19.90;83.40;;;;;;5076211;28;20024;-66
2021/05/10 05:12:17;;;;;;;7.10;2.10;;;19.90;83.60;;;;;;5086875;28;20063;-65
2021/05/10 05:14:42;;;;;;;7.28;2.22;;;19.90;83.50;;;;;;5078868;28;20368;-65
2021/05/10 05:17:08;;;;;;;7.20;2.00;;;20.10;82.80;;;;;;5081027;28;20039;-66
2021/05/10 05:19:34;;;;;;;5.45;1.80;;;20.20;82.30;;;;;;5090073;28;20016;-66
2021/05/10 05:22:00;;;;;;;5.07;1.88;;;20.20;82.50;;;;;;5091211;28;20547;-66
2021/05/10 05:24:25;;;;;;;6.25;1.75;;;20.30;82.20;;;;;;5089939;28;20024;-66
2021/05/10 05:26:51;;;;;;;5.20;2.08;;;20.50;81.90;;;;;;5088558;28;20525;-66
2021/05/10 05:29:20;;;;;;;6.97;2.10;;;20.60;81.50;;;;;;5086786;28;20103;-66
2021/05/10 05:31:46;;;;;;;7.07;2.08;;;20.70;81.30;;;;;;5089792;28;20070;-66
2021/05/10 05:34:11;;;;;;;6.93;1.88;;;20.90;81.40;;;;;;5087586;28;20542;-68
2021/05/10 05:36:37;;;;;;;6.35;2.10;;;20.80;80.70;;;;;;5087748;28;20029;-67
2021/05/10 05:39:06;;;;;;;5.15;1.52;;;20.90;81.00;;;;;;5082082;28;20033;-66
2021/05/10 05:41:32;;;;;;;7.75;1.63;;;21.00;80.90;;;;;;5082396;28;20593;-67
2021/05/10 05:43:57;;;;;;;5.57;1.90;;;20.90;81.60;;;;;;5074879;28;20131;-66
2021/05/10 05:46:28;;;;;;;5.45;1.55;;;20.60;82.60;;;;;;5083799;28;20120;-66
2021/05/10 05:48:55;;;;;;;4.45;1.67;;;20.50;83.90;;;;;;5081864;28;20434;-67
2021/05/10 05:51:21;;;;;;;6.30;1.70;;;20.30;85.10;;;;;;5080405;28;20032;-67
2021/05/10 05:53:47;;;;;;;7.30;1.92;;;20.20;85.30;;;;;;5084453;28;20028;-66
2021/05/10 05:56:13;;;;;;;4.70;1.75;;;20.30;84.90;;;;;;5084606;28;20772;-66
2021/05/10 05:58:38;;;;;;;8.40;1.95;;;20.40;85.00;;;;;;5084420;28;20047;-66
2021/05/10 06:01:04;;;;;;;5.05;1.63;;;20.40;85.10;;;;;;5082697;28;20024;-66
2021/05/10 06:03:30;;;;;;;5.03;1.88;;;20.40;85.30;;;;;;5085146;28;20024;-66
2021/05/10 06:05:55;;;;;;;5.13;1.70;;;20.40;85.30;;;;;;5087366;28;20093;-66
2021/05/10 06:08:21;;;;;;;4.65;1.63;;;20.40;85.80;;;;;;5086488;28;20253;-66
2021/05/10 06:10:48;;;;;;;7.90;1.80;;;20.40;85.60;;;;;;5085868;28;20032;-66
2021/05/10 06:13:14;;;;;;;8.35;1.90;;;20.30;85.90;;;;;;5083340;28;20411;-66
2021/05/10 06:15:40;;;;;;;6.25;1.88;;;20.40;86.30;;;;;;5083513;28;20331;-66
2021/05/10 06:18:09;;;;;;;4.95;1.80;;;20.30;86.20;;;;;;5082712;28;20612;-66
2021/05/10 06:20:35;;;;;;;5.93;1.80;;;20.20;86.40;;;;;;5085283;28;20032;-66
2021/05/10 06:23:04;;;;;;;8.98;1.95;;;20.30;86.50;;;;;;5083725;28;20441;-66
2021/05/10 06:25:31;;;;;;;5.97;1.98;;;20.40;86.60;;;;;;5087068;28;20031;-66
2021/05/10 06:27:57;;;;;;;8.75;1.80;;;20.50;85.90;;;;;;5088733;28;20050;-66
2021/05/10 06:30:23;;;;;;;5.10;1.75;;;20.50;86.30;;;;;;5082994;28;20020;-67
2021/05/10 06:32:50;;;;;;;5.57;1.77;;;20.50;86.50;;;;;;5085293;28;20050;-66
2021/05/10 06:35:16;;;;;;;6.97;2.00;;;20.40;86.90;;;;;;5084812;28;20043;-66
2021/05/10 06:37:42;;;;;;;9.23;1.83;;;20.30;87.30;;;;;;5083481;28;20128;-65
2021/05/10 06:40:09;;;;;;;5.03;1.70;;;20.20;88.10;;;;;;5079063;28;20047;-66
2021/05/10 06:42:35;;;;;;;5.00;1.63;;;20.20;87.90;;;;;;5084185;28;20039;-66
2021/05/10 06:45:02;;;;;;;4.30;1.60;;;20.20;88.00;;;;;;5084505;28;20039;-65
2021/05/10 06:47:28;;;;;;;7.50;1.75;;;20.10;88.10;;;;;;5083682;28;20030;-66
2021/05/10 06:49:54;;;;;;;6.85;1.83;;;20.10;88.20;;;;;;5083863;28;20400;-68
2021/05/10 06:52:20;;;;;;;7.03;2.10;;;20.20;88.60;;;;;;5084029;28;20558;-67
2021/05/10 06:54:45;;;;;;;6.53;1.90;;;20.20;88.40;;;;;;5084595;28;20114;-67
2021/05/10 06:57:11;;;;;;;9.25;1.70;;;20.30;88.60;;;;;;5081290;28;20126;-67
2021/05/10 06:59:39;;;;;;;7.47;2.00;;;20.40;88.30;;;;;;5082590;28;20387;-67
2021/05/10 07:02:04;;;;;;;4.07;1.60;;;20.60;88.10;;;;;;5083503;28;20066;-67
2021/05/10 07:04:30;;;;;;;4.75;1.38;;;20.70;88.10;;;;;;5080169;28;20481;-66
2021/05/10 07:06:56;;;;;;;5.05;1.70;;;20.80;87.90;;;;;;5083458;28;20445;-67
2021/05/10 07:09:23;;;;;;;5.40;1.70;;;20.70;87.40;;;;;;5083806;28;20032;-66
2021/05/10 07:11:49;;;;;;;5.72;2.00;;;20.60;88.10;;;;;;5082463;28;20103;-67
2021/05/10 07:14:15;;;;;;;8.52;1.98;;;20.80;88.00;;;;;;5082507;28;20028;-67
2021/05/10 07:16:40;;;;;;;6.10;2.15;;;20.80;87.40;;;;;;5082729;28;20091;-67
2021/05/10 07:19:06;;;;;;;4.93;1.70;;;20.90;87.80;;;;;;5082963;28;20417;-67
2021/05/10 07:21:32;;;;;;;3.88;1.63;;;21.00;87.40;;;;;;5082251;28;20141;-67
2021/05/10 07:23:58;;;;;;;8.73;2.05;;;20.90;87.70;;;;;;5080593;28;20097;-67
2021/05/10 07:26:23;;;;;;;7.10;1.90;;;20.60;88.50;;;;;;5082146;28;20047;-67
2021/05/10 07:28:50;;;;;;;6.85;2.00;;;20.50;89.00;;;;;;5082191;28;20066;-67
2021/05/10 07:31:15;;;;;;;6.55;1.92;;;20.60;89.30;;;;;;5081953;28;20380;-67
2021/05/10 07:33:41;;;;;;;5.50;1.75;;;20.70;89.40;;;;;;5081385;28;20035;-66
2021/05/10 07:36:07;;;;;;;4.90;1.98;;;20.80;89.80;;;;;;5081634;28;20095;-67
2021/05/10 07:38:33;;;;;;;5.68;2.00;;;20.70;88.20;;;;;;5081285;28;20075;-67
2021/05/10 07:40:58;;;;;;;5.97;1.80;;;20.90;88.70;;;;;;5081668;28;20024;-67
2021/05/10 07:43:24;;;;;;;5.70;1.73;;;21.00;88.40;;;;;;5083114;28;20031;-67
2021/05/10 07:45:50;;;;;;;5.15;1.55;;;21.10;87.00;;;;;;5083083;28;20502;-66
2021/05/10 07:48:16;;;;;;;4.15;1.48;;;21.10;86.40;;;;;;5082855;28;20036;-66
2021/05/10 07:50:42;;;;;;;6.53;1.48;;;21.10;84.80;;;;;;5083511;28;20067;-67
2021/05/10 07:53:08;;;;;;;3.83;1.52;;;21.20;83.80;;;;;;5082915;28;20023;-67
2021/05/10 07:55:36;;;;;;;3.75;1.50;;;21.30;84.20;;;;;;5083327;28;20028;-67
2021/05/10 07:58:02;;;;;;;6.05;1.70;;;21.30;83.90;;;;;;5082012;28;20073;-67
2021/05/10 08:00:30;;;;;;;10.77;1.90;;;21.50;83.30;;;;;;5082982;28;20462;-67
2021/05/10 08:03:04;;;;;;;5.18;1.67;;;21.50;83.30;;;;;;5083928;28;20528;-67
2021/05/10 08:05:30;;;;;;;4.80;1.60;;;21.60;83.40;;;;;;5076171;28;20031;-66
2021/05/10 08:07:56;;;;;;;4.50;1.55;;;21.80;83.00;;;;;;5077844;28;20024;-67
2021/05/10 08:10:21;;;;;;;5.95;1.60;;;21.90;82.40;;;;;;5086368;28;20132;-67
2021/05/10 08:12:48;;;;;;;4.38;1.70;;;22.20;82.20;;;;;;5080313;28;20020;-67
2021/05/10 08:15:14;;;;;;;7.50;1.55;;;22.60;82.50;;;;;;5082053;28;20028;-67
2021/05/10 08:17:40;;;;;;;6.82;1.55;;;22.50;80.30;;;;;;5075115;28;20028;-67
2021/05/10 08:20:06;;;;;;;4.57;1.40;;;22.50;81.10;;;;;;5077777;28;20027;-67
2021/05/10 08:22:32;;;;;;;6.25;1.70;;;22.90;79.90;;;;;;5084063;28;20484;-67
2021/05/10 08:25:00;;;;;;;7.10;1.65;;;22.80;79.80;;;;;;5084439;28;20125;-67
2021/05/10 08:27:26;;;;;;;6.60;1.52;;;23.00;80.50;;;;;;5077081;28;20125;-66
2021/05/10 08:29:52;;;;;;;3.88;1.65;;;22.70;79.60;;;;;;5080533;28;20058;-67
2021/05/10 08:32:17;;;;;;;7.63;1.38;;;22.20;80.60;;;;;;5080917;28;20039;-67
2021/05/10 08:34:43;;;;;;;3.40;1.23;;;22.00;80.60;;;;;;5082307;28;20393;-67
2021/05/10 08:37:09;;;;;;;6.28;1.67;;;21.80;80.90;;;;;;5074254;28;20087;-67
2021/05/10 08:39:35;;;;;;;5.25;1.63;;;21.40;81.20;;;;;;5086316;28;20383;-67
2021/05/10 08:42:00;;;;;;;3.47;1.50;;;21.30;82.50;;;;;;5082470;28;20058;-67
2021/05/10 08:44:26;;;;;;;4.18;1.45;;;21.50;82.40;;;;;;5085739;28;20035;-67
2021/05/10 08:46:53;;;;;;;12.30;1.70;;;21.70;81.90;;;;;;5077653;28;20020;-67
2021/05/10 08:49:21;;;;;;;5.10;1.60;;;21.30;83.00;;;;;;5082977;28;20028;-67
2021/05/10 08:51:48;;;;;;;5.18;1.50;;;21.60;84.00;;;;;;5084367;28;20028;-68
2021/05/10 08:54:24;;;;;;;6.20;1.70;;;21.90;83.10;;;;;;5083680;28;20028;-67
2021/05/10 08:56:50;;;;;;;4.63;1.50;;;22.00;83.00;;;;;;5083357;28;20368;-67
2021/05/10 08:59:17;;;;;;;6.40;1.77;;;22.80;81.30;;;;;;5083608;28;20044;-67
2021/05/10 09:02:03;;;;;;;5.95;1.88;;;23.80;80.60;;;;;;5080909;28;20035;-67
2021/05/10 09:04:37;;;;;;;4.70;1.73;;;24.10;78.70;;;;;;5082825;28;20028;-67
2021/05/10 09:07:18;;;;;;;8.10;1.50;;;25.30;77.70;;;;;;5078808;28;20043;-67
2021/05/10 09:09:59;;;;;;;5.07;1.60;;;24.50;77.50;;;;;;5081591;28;20093;-67
2021/05/10 09:12:48;;;;;;;5.00;1.50;;;23.50;79.80;;;;;;5085601;28;20366;-66
2021/05/10 09:15:17;;;;;;;4.85;1.50;;;22.30;82.50;;;;;;5080110;28;20108;-67
2021/05/10 09:17:57;;;;;;;5.63;1.70;;;21.90;83.50;;;;;;5084369;28;20050;-66
2021/05/10 09:20:26;;;;;;;7.80;1.90;;;21.80;83.80;;;;;;5083257;28;20082;-67
2021/05/10 09:22:59;;;;;;;4.88;1.52;;;21.40;85.10;;;;;;5085309;28;20024;-66
2021/05/10 09:25:33;;;;;;;5.95;1.70;;;21.30;85.30;;;;;;5086560;28;20035;-66
2021/05/10 09:28:16;;;;;;;4.32;1.63;;;20.90;86.00;;;;;;5077064;28;21591;-66
2021/05/10 09:30:43;;;;;;;4.43;1.60;;;20.80;86.30;;;;;;5081424;28;20613;-67
2021/05/10 09:33:24;;;;;;;3.88;1.30;;;20.70;87.10;;;;;;5085078;28;20058;-67
2021/05/10 09:35:54;;;;;;;6.68;1.45;;;20.60;87.30;;;;;;5082912;28;20024;-67
2021/05/10 09:38:22;;;;;;;4.13;1.40;;;20.40;87.60;;;;;;5088130;28;20040;-67
2021/05/10 09:40:53;;;;;;;5.78;1.40;;;20.60;87.20;;;;;;5085006;28;20427;-67
2021/05/10 09:43:33;;;;;;;14.63;1.20;;;20.50;87.00;;;;;;5086381;28;20468;-67
2021/05/10 09:46:03;;;;;;;10.77;1.20;;;20.40;86.80;;;;;;5084090;28;20098;-67
2021/05/10 09:48:33;;;;;;;3.20;1.20;;;20.30;87.40;;;;;;5086385;28;20089;-67
2021/05/10 09:51:04;;;;;;;3.42;1.15;;;20.50;87.20;;;;;;5086889;28;20145;-66
2021/05/10 09:53:57;;;;;;;2.90;1.10;;;20.80;86.50;;;;;;5086667;28;20363;-66
2021/05/10 09:56:36;;;;;;;2.25;1.10;;;20.70;86.20;;;;;;5084530;28;20028;-66
2021/05/10 09:59:04;;;;;;;2.85;1.10;;;20.60;85.30;;;;;;5084726;28;20476;-65
2021/05/10 10:01:49;;;;;;;3.28;1.00;;;20.90;85.30;;;;;;5083889;28;20071;-65
2021/05/10 10:04:19;;;;;;;2.40;1.00;;;20.60;86.20;;;;;;5085322;28;20039;-65
2021/05/10 10:06:45;;;;;;;;;;;21.60;85.40;;;;;;5084356;28;20044;-65
2021/05/10 10:09:11;;;;;;;2.50;0.90;;;22.00;82.30;;;;;;5081978;28;19935;-65
2021/05/10 10:11:36;;;;;;;4.57;1.10;;;22.30;82.00;;;;;;5083535;28;20492;-65
2021/05/10 10:14:03;;;;;;;4.60;0.93;;;22.00;82.90;;;;;;5084382;28;20110;-65
2021/05/10 10:16:32;;;;;;;3.28;1.00;;;22.20;82.90;;;;;;5082364;28;20024;-65
2021/05/10 10:19:03;;;;;;;3.50;1.17;;;22.20;82.60;;;;;;5085127;28;20044;-65
2021/05/10 10:21:29;;;;;;;3.70;1.02;;;21.70;82.90;;;;;;5084955;28;20021;-65
2021/05/10 10:24:14;;;;;;;6.63;1.10;;;21.50;83.30;;;;;;5083185;28;20043;-65
2021/05/10 10:26:41;;;;;;;3.88;1.15;;;21.60;82.60;;;;;;5084141;28;20040;-65
2021/05/10 10:29:10;;;;;;;1.90;0.80;;;21.60;81.60;;;;;;5085212;28;20381;-65
2021/05/10 10:31:44;;;;;;;2.17;0.90;;;22.20;81.90;;;;;;5085503;28;20044;-65
2021/05/10 10:34:18;;;;;;;2.05;0.80;;;22.40;80.90;;;;;;5082122;28;20369;-65
2021/05/10 10:36:47;;;;;;;2.35;0.80;;;22.60;80.80;;;;;;5084554;28;20028;-65
2021/05/10 10:39:25;;;;;;;4.38;1.00;;;22.00;81.30;;;;;;5083866;28;20028;-65
2021/05/10 10:42:05;;;;;;;3.63;1.00;;;21.70;81.50;;;;;;5082620;28;20020;-65
2021/05/10 10:44:38;;;;;;;2.42;1.00;;;21.30;82.10;;;;;;5083602;28;20036;-66
2021/05/10 10:47:06;;;;;;;4.07;1.00;;;21.60;81.80;;;;;;5083266;28;20394;-66
2021/05/10 10:49:36;;;;;;;3.47;1.17;;;21.90;82.80;;;;;;5084159;28;20056;-65
2021/05/10 10:52:03;;;;;;;4.57;0.90;;;22.30;82.20;;;;;;5083792;28;20541;-65
2021/05/10 10:54:30;;;;;;;3.63;1.00;;;22.60;80.30;;;;;;5083018;28;20036;-65
2021/05/10 10:57:03;;;;;;;2.38;1.00;;;22.30;80.40;;;;;;5083345;28;20054;-66
2021/05/10 10:59:39;;;;;;;2.88;0.90;;;21.90;80.80;;;;;;5082890;28;20448;-66
2021/05/10 11:02:21;;;;;;;2.38;0.80;;;22.10;80.00;;;;;;5084991;28;20024;-66
2021/05/10 11:05:07;;;;;;;1.88;0.70;;;22.60;78.70;;;;;;5082035;28;20023;-65
2021/05/10 11:08:14;;;;;;;1.48;0.77;;;22.60;78.40;;;;;;5083546;28;20405;-66
2021/05/10 11:10:51;;;;;;;1.30;0.93;;;23.10;77.90;;;;;;5044485;28;20055;-66
2021/05/10 11:13:29;;;;;;;1.83;0.85;;;23.10;77.20;;;;;;5082942;28;20056;-66
2021/05/10 11:16:06;;;;;;;2.60;0.85;;;22.50;78.40;;;;;;5084363;28;20027;-66
2021/05/10 11:18:52;;;;;;;3.78;0.80;;;22.00;79.40;;;;;;5084007;28;20383;-66
2021/05/10 11:21:21;;;;;;;3.05;0.80;;;21.90;79.90;;;;;;5082819;28;20032;-66
2021/05/10 11:24:09;;;;;;;1.48;0.70;;;22.40;79.40;;;;;;5085096;28;20504;-66
2021/05/10 11:26:45;;;;;;;1.90;0.80;;;23.20;77.50;;;;;;5084594;28;20060;-66
2021/05/10 11:29:24;;;;;;;1.05;0.65;;;23.00;77.90;;;;;;5083901;28;20105;-65
2021/05/10 11:31:51;;;;;;;2.30;1.00;;;23.00;78.10;;;;;;5085923;28;20020;-66
2021/05/10 11:34:23;;;;;;;4.10;0.90;;;22.50;77.90;;;;;;5082110;28;20121;-66
2021/05/10 11:36:54;;;;;;;1.40;0.70;;;22.10;78.70;;;;;;5083764;28;20035;-66
2021/05/10 11:39:28;;;;;;;2.58;0.90;;;21.70;80.30;;;;;;5083021;28;20036;-66
2021/05/10 11:42:02;;;;;;;2.35;0.90;;;21.90;79.30;;;;;;5084358;28;20024;-66
2021/05/10 11:44:38;;;;;;;1.63;0.70;;;23.00;78.70;;;;;;5083950;28;20062;-66
2021/05/10 11:47:11;;;;;;;3.47;0.88;;;23.80;75.80;;;;;;5083407;28;20079;-66
2021/05/10 11:49:42;;;;;;;4.28;1.00;;;24.60;73.80;;;;;;5083577;28;20035;-66
2021/05/10 11:52:10;;;;;;;2.55;0.90;;;24.30;73.80;;;;;;5084415;28;20020;-66
2021/05/10 11:54:38;;;;;;;3.50;0.90;;;24.30;74.50;;;;;;5083283;28;20821;-66
2021/05/10 11:57:04;;;;;;;1.98;0.80;;;24.50;73.50;;;;;;5084359;28;20538;-65
2021/05/10 12:02:08;;;;;;;6.63;1.00;;;23.20;75.50;;;;;;5083355;28;20060;-66
2021/05/10 12:04:35;;;;;;;1.33;0.60;;;23.60;75.90;;;;;;5085689;28;20349;-66
2021/05/10 12:07:01;;;;;;;2.60;1.00;;;23.40;76.70;;;;;;5082016;28;20044;-66
2021/05/10 12:10:04;;;;;;;2.10;0.80;;;23.90;74.30;;;;;;5082503;28;20032;-65
2021/05/10 12:12:47;;;;;;;4.28;0.90;;;24.80;73.50;;;;;;5021085;28;20052;-66
2021/05/10 12:15:15;;;;;;;2.67;0.90;;;25.50;71.00;;;;;;5020040;28;20036;-66
2021/05/10 12:17:51;;;;;;;2.78;1.00;;;25.10;71.50;;;;;;5022163;28;20050;-66
2021/05/10 12:20:17;;;;;;;2.67;1.00;;;25.00;70.10;;;;;;5003068;28;20391;-66
2021/05/10 12:22:46;;;;;;;3.65;0.98;;;24.20;70.60;;;;;;5022259;28;20095;-65
2021/05/10 12:25:13;;;;;;;1.63;0.90;;;24.80;70.50;;;;;;5020726;28;20481;-65
2021/05/10 12:27:41;;;;;;;2.80;0.98;;;25.20;68.30;;;;;;5023715;28;20456;-65
2021/05/10 12:30:24;;;;;;;3.92;1.00;;;24.50;69.60;;;;;;5024724;28;20505;-65
2021/05/10 12:32:55;;;;;;;4.38;0.93;;;24.00;71.20;;;;;;5020235;28;20104;-66
2021/05/10 12:35:24;;;;;;;1.98;0.80;;;24.20;71.20;;;;;;5022091;28;20033;-65
2021/05/10 12:37:52;;;;;;;5.45;1.13;;;24.20;70.80;;;;;;5025328;28;20040;-65
2021/05/10 12:40:24;;;;;;;4.22;1.05;;;24.00;71.90;;;;;;5021012;28;20021;-66
2021/05/10 12:43:16;;;;;;;4.57;1.13;;;24.70;71.10;;;;;;5008545;28;20111;-66
2021/05/10 12:45:57;;;;;;;2.85;1.02;;;25.30;72.10;;;;;;5023189;28;20120;-66
2021/05/10 12:48:50;;;;;;;1.67;0.80;;;24.30;70.20;;;;;;5034778;28;20040;-65
2021/05/10 12:51:20;;;;;;;2.60;0.93;;;23.20;71.70;;;;;;5073830;28;20086;-66
2021/05/10 12:53:47;;;;;;;;;;;23.80;72.90;;;;;;5072101;28;20088;-66
2021/05/10 12:56:15;;;;;;;2.92;1.10;;;23.20;73.40;;;;;;5078917;28;20347;-66
2021/05/10 12:58:44;;;;;;;3.13;1.10;;;23.40;73.20;;;;;;5083792;28;20028;-66
2021/05/10 13:01:15;;;;;;;1.73;0.90;;;23.50;72.20;;;;;;5081388;28;20422;-65
2021/05/10 13:03:42;;;;;;;2.25;0.80;;;23.40;72.70;;;;;;5083794;28;20480;-65
2021/05/10 13:06:08;;;;;;;5.50;1.20;;;22.60;74.00;;;;;;5082996;28;20504;-66
2021/05/10 13:08:41;;;;;;;2.53;1.00;;;22.70;73.70;;;;;;5084669;28;20568;-65
2021/05/10 13:11:16;;;;;;;3.15;1.08;;;22.70;73.80;;;;;;5082431;28;20028;-65